createdAt,value
2023-02-16T00:02:17.832Z,-4.89
2023-02-16T00:07:23.988Z,-4.80
2023-02-16T00:12:46.746Z,-4.68
2023-02-16T00:17:51.376Z,-4.60
2023-02-16T00:22:57.089Z,-4.53
2023-02-16T00:28:17.572Z,-4.44
2023-02-16T00:33:23.452Z,-4.38
2023-02-16T00:38:28.006Z,-4.29
2023-02-16T00:43:33.551Z,-4.23
2023-02-16T00:48:39.383Z,-4.15
2023-02-16T00:53:43.957Z,-4.03
2023-02-16T00:58:52.308Z,-3.94
2023-02-16T01:03:57.113Z,-3.83
2023-02-16T01:09:40.842Z,-3.65
2023-02-16T01:14:49.493Z,-3.49
2023-02-16T01:19:54.191Z,-3.29
2023-02-16T01:24:59.617Z,-3.11
2023-02-16T01:30:05.714Z,-2.94
2023-02-16T01:35:11.884Z,-2.72
2023-02-16T01:40:33.373Z,-2.53
2023-02-16T01:45:44.596Z,-2.38
2023-02-16T01:50:58.806Z,-2.17
2023-02-16T01:56:12.217Z,-2.00
2023-02-16T02:01:38.860Z,-1.84
2023-02-16T02:06:43.760Z,-1.69
2023-02-16T02:11:55.435Z,-1.51
2023-02-16T02:17:05.423Z,-1.33
2023-02-16T02:23:10.179Z,-1.09
2023-02-16T02:28:25.496Z,-0.83
2023-02-16T02:33:48.620Z,-0.65
2023-02-16T02:39:01.992Z,-0.45
2023-02-16T02:44:13.169Z,-0.26
2023-02-16T02:49:18.372Z,-0.06
2023-02-16T02:54:53.025Z,0.12
2023-02-16T03:00:28.877Z,0.32
2023-02-16T03:05:36.867Z,0.48
2023-02-16T03:11:12.438Z,0.62
2023-02-16T03:16:30.193Z,0.81
2023-02-16T03:21:55.087Z,0.96
2023-02-16T03:27:20.184Z,1.17
2023-02-16T03:32:27.292Z,1.33
2023-02-16T03:37:35.270Z,1.50
2023-02-16T03:42:41.358Z,1.59
2023-02-16T03:47:48.384Z,1.72
2023-02-16T03:52:53.543Z,1.91
2023-02-16T03:57:59.432Z,2.03
2023-02-16T04:03:06.620Z,2.15
2023-02-16T04:08:12.565Z,2.24
2023-02-16T04:13:18.421Z,2.33
2023-02-16T04:18:23.571Z,2.47
2023-02-16T04:23:28.631Z,2.65
2023-02-16T04:28:33.633Z,2.79
2023-02-16T04:33:38.739Z,2.92
2023-02-16T04:38:43.818Z,3.07
2023-02-16T04:43:48.895Z,3.16
2023-02-16T04:48:54.000Z,3.23
2023-02-16T04:53:59.851Z,3.31
2023-02-16T04:59:05.994Z,3.47
2023-02-16T05:04:11.668Z,3.60
2023-02-16T05:09:16.762Z,3.74
2023-02-16T05:14:44.140Z,3.79
2023-02-16T05:19:55.064Z,3.84
2023-02-16T05:24:59.891Z,3.82
2023-02-16T05:30:05.566Z,3.86
2023-02-16T05:35:10.778Z,3.91
2023-02-16T05:40:15.897Z,4.07
2023-02-16T05:45:20.703Z,4.17
2023-02-16T05:50:26.024Z,4.24
2023-02-16T05:55:31.058Z,4.33
2023-02-16T06:00:38.693Z,4.41
2023-02-16T06:05:43.902Z,4.46
2023-02-16T06:10:51.022Z,4.51
2023-02-16T06:15:58.449Z,4.58
2023-02-16T06:21:04.008Z,4.65
2023-02-16T06:26:09.493Z,4.71
2023-02-16T06:31:14.657Z,4.77
2023-02-16T06:36:20.582Z,4.83
2023-02-16T06:41:40.218Z,4.89
2023-02-16T06:46:48.877Z,4.97
2023-02-16T06:51:54.171Z,5.00
2023-02-16T06:56:59.213Z,5.03
2023-02-16T07:02:05.120Z,5.02
2023-02-16T07:07:10.352Z,5.02
2023-02-16T07:12:15.368Z,5.01
2023-02-16T07:17:21.682Z,5.03
2023-02-16T07:22:26.743Z,5.02
2023-02-16T07:27:31.856Z,5.00
2023-02-16T07:32:36.924Z,5.01
2023-02-16T07:37:42.215Z,4.96
2023-02-16T07:42:48.416Z,4.96
2023-02-16T07:47:53.519Z,4.97
2023-02-16T07:52:58.720Z,4.93
2023-02-16T07:58:06.656Z,4.88
2023-02-16T08:03:13.071Z,4.87
2023-02-16T08:08:19.309Z,4.84
2023-02-16T08:13:24.153Z,4.80
2023-02-16T08:18:28.895Z,4.74
2023-02-16T08:23:33.989Z,4.67
2023-02-16T08:28:41.163Z,4.60
2023-02-16T08:33:46.615Z,4.49
2023-02-16T08:38:53.354Z,4.42
2023-02-16T08:43:58.749Z,4.33
2023-02-16T08:49:04.453Z,4.26
2023-02-16T08:54:10.822Z,4.15
2023-02-16T08:59:22.140Z,4.10
2023-02-16T09:04:31.774Z,4.00
2023-02-16T09:09:37.152Z,3.89
2023-02-16T09:14:43.146Z,3.79
2023-02-16T09:19:48.501Z,3.68
2023-02-16T09:24:53.595Z,3.57
2023-02-16T09:29:59.648Z,3.43
2023-02-16T09:35:07.225Z,3.30
2023-02-16T09:40:15.726Z,3.16
2023-02-16T09:45:23.933Z,3.00
2023-02-16T09:50:52.496Z,2.84
2023-02-16T09:56:09.561Z,2.70
2023-02-16T10:01:22.099Z,2.56
2023-02-16T10:06:59.672Z,2.43
2023-02-16T10:12:12.836Z,2.33
2023-02-16T10:17:35.597Z,2.21
2023-02-16T10:22:43.641Z,2.12
2023-02-16T10:28:13.814Z,2.01
2023-02-16T10:33:27.964Z,1.89
2023-02-16T10:38:40.173Z,1.79
2023-02-16T10:43:54.786Z,1.71
2023-02-16T10:49:04.282Z,1.61
2023-02-16T10:54:22.813Z,1.52
2023-02-16T10:59:41.785Z,1.42
2023-02-16T11:04:51.486Z,1.38
2023-02-16T11:10:04.269Z,1.32
2023-02-16T11:15:23.316Z,1.28
2023-02-16T11:20:46.444Z,1.22
2023-02-16T11:26:15.283Z,1.18
2023-02-16T11:31:27.068Z,1.14
2023-02-16T11:36:42.154Z,1.07
2023-02-16T11:42:01.167Z,1.04
2023-02-16T11:47:26.198Z,1.01
2023-02-16T11:52:35.539Z,0.96
2023-02-16T11:57:40.744Z,0.92
2023-02-16T12:02:48.192Z,0.81
2023-02-16T12:08:18.454Z,0.56
2023-02-16T12:13:50.709Z,0.42
2023-02-16T12:19:26.943Z,0.13
2023-02-16T12:25:08.760Z,-0.15
2023-02-16T12:30:14.764Z,-0.36
2023-02-16T12:35:50.097Z,-0.50
2023-02-16T12:41:16.046Z,-0.60
2023-02-16T12:46:22.413Z,-0.70
2023-02-16T12:51:34.321Z,-0.83
2023-02-16T12:56:46.163Z,-0.90
2023-02-16T13:01:55.034Z,-0.89
2023-02-16T13:07:35.102Z,-0.89
2023-02-16T13:12:49.257Z,-0.93
2023-02-16T13:18:06.891Z,-0.98
2023-02-16T13:23:40.692Z,-1.03
2023-02-16T13:28:52.868Z,-1.11
2023-02-16T13:34:07.637Z,-1.16
2023-02-16T13:39:30.469Z,-1.20
2023-02-16T13:44:46.058Z,-1.25
2023-02-16T13:50:00.203Z,-1.31
2023-02-16T13:55:26.609Z,-1.27
2023-02-16T14:00:47.293Z,-1.17
2023-02-16T14:05:55.481Z,-1.12
2023-02-16T14:11:07.500Z,-1.09
2023-02-16T14:16:15.016Z,-1.09
2023-02-16T14:21:34.917Z,-1.11
2023-02-16T14:27:04.455Z,-1.22
2023-02-16T14:32:41.683Z,-1.34
2023-02-16T14:38:05.506Z,-1.45
2023-02-16T14:43:35.913Z,-1.55
2023-02-16T14:49:03.589Z,-1.64
2023-02-16T14:54:38.453Z,-1.71
2023-02-16T15:00:13.075Z,-1.73
2023-02-16T15:05:26.690Z,-1.62
2023-02-16T15:10:34.518Z,-1.46
2023-02-16T15:15:52.062Z,-1.44
2023-02-16T15:21:02.029Z,-1.43
2023-02-16T15:26:21.778Z,-1.45
2023-02-16T15:31:37.775Z,-1.50
2023-02-16T15:36:47.632Z,-1.57
2023-02-16T15:41:57.770Z,-1.67
2023-02-16T15:47:16.350Z,-1.67
2023-02-16T15:52:40.023Z,-1.73
2023-02-16T15:57:44.995Z,-1.71
2023-02-16T16:02:53.065Z,-1.69
2023-02-16T16:08:01.189Z,-1.59
2023-02-16T16:13:09.862Z,-1.49
2023-02-16T16:18:38.689Z,-1.42
2023-02-16T16:23:54.145Z,-1.41
2023-02-16T16:28:59.217Z,-1.44
2023-02-16T16:34:09.284Z,-1.52
2023-02-16T16:39:20.237Z,-1.65
2023-02-16T16:44:45.672Z,-1.76
2023-02-16T16:50:12.659Z,-1.86
2023-02-16T16:55:27.357Z,-1.96
2023-02-16T17:00:40.793Z,-2.06
2023-02-16T17:05:47.293Z,-2.08
2023-02-16T17:10:52.694Z,-2.12
2023-02-16T17:16:26.745Z,-2.10
2023-02-16T17:21:32.092Z,-2.11
2023-02-16T17:26:37.667Z,-2.17
2023-02-16T17:31:42.906Z,-2.23
2023-02-16T17:36:48.103Z,-2.30
2023-02-16T17:41:53.730Z,-2.36
2023-02-16T17:46:59.943Z,-2.46
2023-02-16T17:52:06.235Z,-2.52
2023-02-16T17:57:13.249Z,-2.56
2023-02-16T18:02:18.146Z,-2.59
2023-02-16T18:07:24.240Z,-2.61
2023-02-16T18:12:29.587Z,-2.57
2023-02-16T18:17:35.563Z,-2.47
2023-02-16T18:22:41.615Z,-2.39
2023-02-16T18:27:47.247Z,-2.37
2023-02-16T18:32:54.290Z,-2.44
2023-02-16T18:38:00.256Z,-2.49
2023-02-16T18:43:06.025Z,-2.56
2023-02-16T18:48:11.665Z,-2.67
2023-02-16T18:53:17.013Z,-2.71
2023-02-16T18:58:23.349Z,-2.74
2023-02-16T19:03:30.304Z,-2.82
2023-02-16T19:08:35.983Z,-2.92
2023-02-16T19:13:40.941Z,-2.95
2023-02-16T19:18:45.955Z,-2.92
2023-02-16T19:23:52.194Z,-2.94
2023-02-16T19:28:58.812Z,-2.96
2023-02-16T19:34:05.176Z,-2.97
2023-02-16T19:39:11.410Z,-2.93
2023-02-16T19:44:18.110Z,-2.91
2023-02-16T19:49:23.263Z,-3.01
2023-02-16T19:54:30.131Z,-3.09
2023-02-16T19:59:36.419Z,-3.15
2023-02-16T20:04:41.425Z,-3.26
2023-02-16T20:09:48.114Z,-3.30
2023-02-16T20:14:57.227Z,-3.36
2023-02-16T20:20:02.736Z,-3.37
2023-02-16T20:25:07.800Z,-3.34
2023-02-16T20:30:26.449Z,-3.31
2023-02-16T20:35:31.098Z,-3.28
2023-02-16T20:40:36.530Z,-3.24
2023-02-16T20:45:44.557Z,-3.23
2023-02-16T20:50:55.729Z,-3.20
2023-02-16T20:56:06.781Z,-3.25
2023-02-16T21:01:24.811Z,-3.33
2023-02-16T21:06:31.463Z,-3.40
2023-02-16T21:11:38.618Z,-3.49
2023-02-16T21:16:43.640Z,-3.56
2023-02-16T21:21:49.449Z,-3.57
2023-02-16T21:26:54.110Z,-3.52
2023-02-16T21:32:00.352Z,-3.48
2023-02-16T21:37:06.310Z,-3.41
2023-02-16T21:42:12.635Z,-3.45
2023-02-16T21:47:36.284Z,-3.48
2023-02-16T21:52:40.922Z,-3.58
2023-02-16T21:57:47.748Z,-3.63
2023-02-16T22:02:54.649Z,-3.72
2023-02-16T22:08:01.222Z,-3.78
2023-02-16T22:13:06.432Z,-3.84
2023-02-16T22:18:11.216Z,-3.95
2023-02-16T22:23:17.498Z,-3.96
2023-02-16T22:28:23.784Z,-3.98
2023-02-16T22:33:29.361Z,-3.94
2023-02-16T22:38:34.122Z,-3.95
2023-02-16T22:43:40.765Z,-3.85
2023-02-16T22:48:47.482Z,-3.85
2023-02-16T22:53:52.180Z,-3.90
2023-02-16T22:58:58.406Z,-3.85
2023-02-16T23:04:03.555Z,-3.90
2023-02-16T23:09:18.606Z,-3.92
2023-02-16T23:14:23.362Z,-3.95
2023-02-16T23:19:28.603Z,-3.93
2023-02-16T23:24:33.343Z,-3.81
2023-02-16T23:29:37.883Z,-3.71
2023-02-16T23:34:42.487Z,-3.67
2023-02-16T23:39:48.241Z,-3.53
2023-02-16T23:44:53.908Z,-3.46
2023-02-16T23:49:58.544Z,-3.38
2023-02-16T23:55:04.045Z,-3.35
